createdAt,value
2022-10-18T00:00:20.859Z,19.65
2022-10-18T00:02:48.008Z,18.10
2022-10-18T00:05:15.202Z,13.43
2022-10-18T00:07:42.467Z,19.35
2022-10-18T00:10:10.129Z,18.55
2022-10-18T00:12:38.167Z,16.02
2022-10-18T00:15:07.148Z,18.50
2022-10-18T00:17:36.208Z,16.65
2022-10-18T00:20:04.214Z,22.83
2022-10-18T00:22:31.843Z,15.68
2022-10-18T00:25:01.842Z,20.58
2022-10-18T00:27:29.939Z,18.95
2022-10-18T00:29:57.349Z,18.08
2022-10-18T00:32:25.279Z,17.63
2022-10-18T00:34:52.394Z,19.15
2022-10-18T00:37:19.519Z,17.63
2022-10-18T00:39:46.613Z,15.60
2022-10-18T00:42:18.496Z,17.30
2022-10-18T00:44:45.620Z,23.48
2022-10-18T00:47:16.394Z,21.60
2022-10-18T00:49:48.688Z,21.88
2022-10-18T00:52:29.382Z,28.55
2022-10-18T00:54:57.876Z,31.02
2022-10-18T00:57:25.852Z,26.33
2022-10-18T00:59:54.115Z,18.98
2022-10-18T01:02:22.003Z,21.92
2022-10-18T01:04:49.325Z,24.67
2022-10-18T01:07:38.732Z,23.58
2022-10-18T01:10:11.578Z,19.23
2022-10-18T01:13:04.907Z,21.52
2022-10-18T01:15:40.726Z,16.83
2022-10-18T01:18:12.557Z,19.05
2022-10-18T01:21:11.954Z,20.00
2022-10-18T01:23:57.443Z,18.50
2022-10-18T01:26:33.320Z,17.30
2022-10-18T01:29:28.682Z,18.27
2022-10-18T01:32:03.837Z,24.05
2022-10-18T01:34:35.892Z,17.63
2022-10-18T01:37:07.933Z,13.75
2022-10-18T01:39:37.994Z,19.23
2022-10-18T01:42:09.928Z,21.00
2022-10-18T01:44:39.215Z,18.17
2022-10-18T01:47:09.571Z,17.90
2022-10-18T01:49:36.706Z,23.73
2022-10-18T01:52:03.987Z,27.88
2022-10-18T01:54:35.106Z,31.10
2022-10-18T01:57:14.353Z,42.13
2022-10-18T01:59:51.663Z,21.58
2022-10-18T02:02:29.580Z,31.33
2022-10-18T02:05:02.846Z,29.75
2022-10-18T02:07:55.326Z,27.80
2022-10-18T02:10:49.908Z,25.05
2022-10-18T02:13:20.481Z,30.50
2022-10-18T02:15:51.489Z,26.95
2022-10-18T02:18:24.409Z,27.25
2022-10-18T02:20:51.976Z,27.70
2022-10-18T02:23:23.029Z,35.65
2022-10-18T02:25:50.887Z,24.98
2022-10-18T02:28:18.099Z,33.47
2022-10-18T02:31:18.585Z,48.80
2022-10-18T02:33:45.821Z,32.15
2022-10-18T02:36:24.136Z,26.50
2022-10-18T02:38:56.640Z,36.85
2022-10-18T02:41:26.306Z,28.50
2022-10-18T02:43:54.075Z,24.77
2022-10-18T02:46:21.675Z,30.95
2022-10-18T02:48:49.743Z,35.10
2022-10-18T02:51:16.956Z,29.33
2022-10-18T02:53:44.041Z,24.75
2022-10-18T02:56:11.308Z,30.00
2022-10-18T02:58:38.522Z,30.13
2022-10-18T03:01:05.767Z,27.27
2022-10-18T03:03:32.996Z,29.25
2022-10-18T03:06:00.216Z,28.17
2022-10-18T03:08:27.310Z,26.52
2022-10-18T03:10:54.409Z,24.70
2022-10-18T03:13:23.833Z,25.15
2022-10-18T03:15:50.945Z,32.28
2022-10-18T03:18:18.069Z,23.17
2022-10-18T03:20:45.155Z,25.27
2022-10-18T03:23:12.199Z,26.45
2022-10-18T03:25:41.611Z,22.77
2022-10-18T03:28:11.387Z,42.83
2022-10-18T03:30:41.310Z,26.80
2022-10-18T03:33:08.462Z,27.25
2022-10-18T03:35:35.523Z,27.77
2022-10-18T03:38:02.572Z,25.55
2022-10-18T03:42:56.910Z,26.30
2022-10-18T03:45:27.537Z,29.60
2022-10-18T03:47:57.669Z,31.25
2022-10-18T03:50:24.887Z,22.67
2022-10-18T03:52:51.981Z,29.70
2022-10-18T03:55:19.299Z,31.00
2022-10-18T03:57:47.643Z,21.85
2022-10-18T04:00:15.121Z,21.02
2022-10-18T04:02:42.411Z,24.48
2022-10-18T04:05:09.879Z,20.20
2022-10-18T04:10:09.250Z,23.08
2022-10-18T04:12:36.448Z,21.98
2022-10-18T04:15:03.820Z,22.80
2022-10-18T04:17:31.234Z,23.27
2022-10-18T04:19:58.548Z,30.65
2022-10-18T04:22:25.690Z,25.05
2022-10-18T04:24:56.853Z,25.75
2022-10-18T04:27:24.210Z,25.63
2022-10-18T04:29:51.265Z,31.67
2022-10-18T04:32:18.538Z,30.35
2022-10-18T04:34:45.785Z,30.20
2022-10-18T04:37:12.861Z,28.95
2022-10-18T04:39:39.901Z,54.55
2022-10-18T04:42:06.961Z,38.05
2022-10-18T04:44:34.420Z,44.38
2022-10-18T04:47:01.495Z,30.55
2022-10-18T04:49:28.608Z,37.92
2022-10-18T04:51:55.710Z,33.53
2022-10-18T04:54:25.152Z,30.52
2022-10-18T04:56:54.964Z,30.92
2022-10-18T04:59:22.239Z,32.40
2022-10-18T05:01:49.424Z,36.05
2022-10-18T05:04:16.551Z,33.08
2022-10-18T05:06:43.723Z,32.22
2022-10-18T05:09:10.891Z,45.88
2022-10-18T05:11:38.180Z,38.15
2022-10-18T05:14:05.348Z,35.08
2022-10-18T05:16:33.242Z,36.72
2022-10-18T05:19:00.381Z,35.30
2022-10-18T05:21:27.476Z,40.60
2022-10-18T05:23:57.557Z,37.38
2022-10-18T05:26:24.660Z,43.17
2022-10-18T05:28:51.952Z,43.03
2022-10-18T05:31:19.042Z,34.03
2022-10-18T05:33:56.319Z,55.53
2022-10-18T05:36:25.617Z,43.00
2022-10-18T05:38:56.298Z,39.97
2022-10-18T05:41:24.037Z,43.38
2022-10-18T05:43:51.172Z,39.95
2022-10-18T05:46:18.276Z,36.70
2022-10-18T05:48:50.084Z,29.92
2022-10-18T05:51:18.726Z,31.30
2022-10-18T05:53:46.043Z,37.97
2022-10-18T05:56:14.209Z,45.85
2022-10-18T05:58:42.753Z,57.03
2022-10-18T06:01:10.582Z,36.63
2022-10-18T06:03:37.764Z,32.28
2022-10-18T06:06:10.501Z,50.92
2022-10-18T06:08:39.656Z,34.33
2022-10-18T06:11:16.427Z,33.15
2022-10-18T06:13:45.437Z,40.47
2022-10-18T06:16:13.955Z,46.92
2022-10-18T06:18:41.888Z,50.72
2022-10-18T06:21:10.097Z,38.50
2022-10-18T06:23:37.382Z,50.03
2022-10-18T06:26:07.269Z,40.25
2022-10-18T06:28:36.161Z,43.08
2022-10-18T06:31:05.317Z,42.03
2022-10-18T06:33:34.397Z,35.67
2022-10-18T06:36:06.158Z,46.50
2022-10-18T06:38:34.083Z,38.67
2022-10-18T06:41:01.481Z,38.60
2022-10-18T06:43:28.692Z,38.33
2022-10-18T06:45:56.250Z,36.58
2022-10-18T06:48:24.000Z,38.20
2022-10-18T06:50:52.923Z,32.42
2022-10-18T06:53:20.215Z,37.33
2022-10-18T06:55:50.975Z,32.17
2022-10-18T06:58:18.576Z,28.52
2022-10-18T07:00:47.052Z,38.85
2022-10-18T07:03:14.442Z,38.50
2022-10-18T07:05:41.833Z,30.75
2022-10-18T07:08:09.173Z,40.60
2022-10-18T07:10:36.346Z,31.20
2022-10-18T07:13:27.433Z,30.40
2022-10-18T07:16:20.915Z,42.20
2022-10-18T07:18:50.659Z,44.40
2022-10-18T07:21:20.858Z,31.73
2022-10-18T07:23:49.222Z,40.70
2022-10-18T07:26:21.125Z,40.90
2022-10-18T07:28:52.043Z,31.70
2022-10-18T07:31:19.875Z,38.13
2022-10-18T07:33:52.315Z,33.33
2022-10-18T07:36:21.614Z,42.28
2022-10-18T07:38:53.527Z,44.47
2022-10-18T07:41:26.446Z,33.78
2022-10-18T07:43:54.392Z,48.83
2022-10-18T07:46:23.294Z,28.90
2022-10-18T07:48:53.394Z,40.65
2022-10-18T07:51:21.451Z,34.20
2022-10-18T07:53:49.111Z,34.65
2022-10-18T07:56:21.424Z,39.97
2022-10-18T07:58:54.143Z,34.33
2022-10-18T08:01:25.853Z,33.88
2022-10-18T08:03:54.315Z,45.35
2022-10-18T08:06:24.554Z,33.45
2022-10-18T08:08:52.395Z,38.53
2022-10-18T08:11:23.492Z,31.88
2022-10-18T08:13:52.929Z,37.13
2022-10-18T08:16:29.001Z,34.97
2022-10-18T08:18:58.632Z,27.52
2022-10-18T08:21:29.678Z,25.30
2022-10-18T08:23:57.776Z,26.42
2022-10-18T08:26:25.614Z,36.78
2022-10-18T08:29:09.948Z,31.98
2022-10-18T08:31:40.744Z,28.98
2022-10-18T08:34:08.698Z,27.88
2022-10-18T08:36:37.245Z,29.10
2022-10-18T08:39:04.861Z,31.73
2022-10-18T08:41:38.518Z,28.73
2022-10-18T08:44:20.521Z,30.52
2022-10-18T08:46:51.390Z,29.30
2022-10-18T08:49:41.839Z,29.52
2022-10-18T08:52:34.245Z,31.52
2022-10-18T08:55:15.995Z,30.75
2022-10-18T08:57:44.547Z,32.17
2022-10-18T09:00:21.739Z,25.02
2022-10-18T09:03:13.693Z,25.00
2022-10-18T09:05:51.822Z,22.30
2022-10-18T09:09:04.612Z,27.95
2022-10-18T09:11:44.496Z,27.00
2022-10-18T09:14:20.449Z,25.60
2022-10-18T09:17:02.526Z,40.63
2022-10-18T09:20:03.992Z,24.50
2022-10-18T09:22:47.685Z,27.23
2022-10-18T09:25:19.512Z,28.40
2022-10-18T09:28:07.551Z,29.45
2022-10-18T09:30:53.843Z,30.10
2022-10-18T09:33:32.288Z,30.35
2022-10-18T09:36:03.644Z,25.38
2022-10-18T09:38:43.678Z,32.03
2022-10-18T09:41:25.975Z,30.60
2022-10-18T09:44:22.685Z,30.98
2022-10-18T09:46:55.418Z,28.80
2022-10-18T09:49:30.363Z,31.25
2022-10-18T09:52:01.263Z,24.77
2022-10-18T09:54:34.556Z,27.55
2022-10-18T09:57:29.372Z,32.88
2022-10-18T09:59:59.403Z,27.42
2022-10-18T10:02:26.747Z,23.50
2022-10-18T10:04:57.095Z,24.98
2022-10-18T10:07:32.472Z,29.52
2022-10-18T10:10:08.784Z,28.45
2022-10-18T10:12:39.384Z,29.38
2022-10-18T10:15:19.227Z,24.25
2022-10-18T10:17:59.122Z,29.52
2022-10-18T10:20:46.573Z,24.80
2022-10-18T10:23:20.493Z,28.63
2022-10-18T10:25:53.759Z,22.70
2022-10-18T10:28:24.082Z,33.20
2022-10-18T10:30:51.331Z,26.20
2022-10-18T10:33:34.744Z,26.33
2022-10-18T10:36:06.867Z,25.23
2022-10-18T10:38:34.173Z,25.48
2022-10-18T10:41:01.322Z,27.63
2022-10-18T10:43:40.040Z,29.83
2022-10-18T10:46:14.354Z,24.92
2022-10-18T10:51:16.325Z,22.75
2022-10-18T10:53:50.529Z,19.60
2022-10-18T10:56:27.451Z,16.73
2022-10-18T10:58:58.119Z,19.05
2022-10-18T11:01:32.310Z,18.00
2022-10-18T11:04:23.278Z,18.20
2022-10-18T11:07:13.505Z,20.85
2022-10-18T11:09:48.107Z,21.05
2022-10-18T11:12:20.296Z,21.70
2022-10-18T11:14:55.107Z,15.60
2022-10-18T11:17:42.101Z,19.25
2022-10-18T11:20:21.479Z,20.15
2022-10-18T11:23:00.853Z,23.73
2022-10-18T11:25:53.306Z,15.50
2022-10-18T11:28:26.563Z,19.63
2022-10-18T11:31:07.565Z,24.20
2022-10-18T11:34:07.136Z,19.33
2022-10-18T11:36:56.470Z,20.25
2022-10-18T11:39:49.904Z,19.17
2022-10-18T11:42:25.936Z,21.70
2022-10-18T11:45:07.024Z,20.58
2022-10-18T11:47:58.705Z,17.17
2022-10-18T11:50:42.895Z,21.05
2022-10-18T11:53:19.126Z,22.35
2022-10-18T11:56:04.900Z,25.33
2022-10-18T11:58:35.281Z,14.90
2022-10-18T12:01:28.618Z,18.85
2022-10-18T12:04:07.941Z,16.30
2022-10-18T12:06:38.987Z,16.00
2022-10-18T12:09:34.119Z,21.27
2022-10-18T12:12:02.710Z,11.75
2022-10-18T12:14:58.607Z,14.80
2022-10-18T12:17:44.050Z,11.60
2022-10-18T12:20:21.028Z,13.55
2022-10-18T12:23:02.450Z,14.20
2022-10-18T12:25:33.856Z,16.08
2022-10-18T12:28:18.831Z,16.23
2022-10-18T12:30:55.645Z,12.35
2022-10-18T12:33:29.187Z,11.77
2022-10-18T12:36:18.729Z,12.15
2022-10-18T12:38:49.731Z,13.60
2022-10-18T12:41:21.145Z,14.82
2022-10-18T12:44:06.951Z,12.20
2022-10-18T12:46:49.849Z,13.43
2022-10-18T12:49:41.448Z,15.30
2022-10-18T12:52:23.385Z,18.38
2022-10-18T12:55:18.230Z,12.88
2022-10-18T12:57:54.477Z,13.85
2022-10-18T13:00:30.657Z,12.32
2022-10-18T13:03:10.222Z,10.82
2022-10-18T13:05:53.804Z,11.10
2022-10-18T13:08:28.038Z,12.15
2022-10-18T13:11:01.298Z,21.15
2022-10-18T13:14:06.321Z,10.00
2022-10-18T13:19:18.882Z,13.40
2022-10-18T13:21:58.201Z,13.73
2022-10-18T13:24:39.712Z,12.85
2022-10-18T13:27:35.925Z,12.60
2022-10-18T13:30:18.776Z,11.38
2022-10-18T13:33:01.046Z,12.20
2022-10-18T13:35:55.817Z,11.82
2022-10-18T13:38:42.639Z,15.32
2022-10-18T13:41:13.589Z,13.25
2022-10-18T13:43:53.288Z,15.23
2022-10-18T13:46:42.539Z,14.07
2022-10-18T13:49:40.160Z,11.77
2022-10-18T13:52:28.381Z,8.25
2022-10-18T13:55:31.511Z,13.18
2022-10-18T13:58:24.096Z,16.70
2022-10-18T14:01:14.362Z,13.18
2022-10-18T14:03:57.654Z,9.73
2022-10-18T14:06:33.422Z,16.88
2022-10-18T14:09:14.271Z,16.52
2022-10-18T14:12:01.199Z,14.30
2022-10-18T14:14:35.271Z,15.02
2022-10-18T14:20:20.252Z,13.82
2022-10-18T14:22:54.300Z,18.65
2022-10-18T14:28:31.279Z,15.85
2022-10-18T14:31:08.275Z,8.50
2022-10-18T14:33:36.423Z,18.10
2022-10-18T14:36:15.546Z,13.52
2022-10-18T14:38:58.449Z,10.80
2022-10-18T14:41:32.867Z,12.95
2022-10-18T14:44:24.635Z,13.88
2022-10-18T14:47:13.830Z,9.90
2022-10-18T14:49:45.935Z,16.73
2022-10-18T14:52:17.669Z,13.50
2022-10-18T14:54:45.290Z,14.38
2022-10-18T14:57:22.373Z,13.15
2022-10-18T14:59:53.677Z,15.15
2022-10-18T15:02:33.499Z,12.52
2022-10-18T15:05:17.381Z,9.63
2022-10-18T15:07:44.834Z,11.63
2022-10-18T15:10:20.047Z,9.18
2022-10-18T15:13:08.759Z,12.70
2022-10-18T15:15:36.335Z,12.52
2022-10-18T15:18:05.327Z,11.27
2022-10-18T15:20:39.305Z,11.48
2022-10-18T15:26:01.822Z,12.95
2022-10-18T15:28:32.203Z,12.50
2022-10-18T15:31:01.725Z,14.10
2022-10-18T15:33:34.576Z,9.60
2022-10-18T15:36:12.453Z,13.85
2022-10-18T15:38:39.660Z,10.88
2022-10-18T15:41:38.906Z,15.75
2022-10-18T15:44:27.909Z,12.88
2022-10-18T15:47:09.528Z,13.27
2022-10-18T15:49:45.711Z,14.55
2022-10-18T15:52:21.616Z,13.90
2022-10-18T15:57:18.449Z,17.38
2022-10-18T15:59:55.215Z,10.63
2022-10-18T16:02:22.315Z,14.23
2022-10-18T16:04:49.416Z,16.90
2022-10-18T16:07:16.533Z,11.30
2022-10-18T16:09:43.669Z,10.43
2022-10-18T16:12:10.780Z,8.57
2022-10-18T16:14:37.846Z,10.90
2022-10-18T16:17:08.047Z,14.80
2022-10-18T16:19:35.286Z,12.63
2022-10-18T16:22:06.384Z,17.85
2022-10-18T16:24:34.033Z,12.18
2022-10-18T16:27:01.128Z,12.07
2022-10-18T16:29:31.947Z,15.77
2022-10-18T16:32:00.045Z,13.75
2022-10-18T16:34:27.623Z,15.38
2022-10-18T16:36:55.609Z,18.95
2022-10-18T16:39:23.565Z,12.95
2022-10-18T16:41:51.350Z,9.65
2022-10-18T16:44:19.235Z,11.27
2022-10-18T16:46:49.871Z,15.50
2022-10-18T16:52:25.757Z,14.27
2022-10-18T16:54:54.451Z,13.88
2022-10-18T16:57:21.969Z,11.80
2022-10-18T16:59:49.268Z,13.10
2022-10-18T17:02:16.452Z,17.67
2022-10-18T17:04:43.715Z,13.63
2022-10-18T17:07:23.147Z,13.50
2022-10-18T17:09:50.881Z,12.32
2022-10-18T17:12:21.261Z,9.00
2022-10-18T17:14:48.907Z,13.32
2022-10-18T17:17:16.401Z,13.15
2022-10-18T17:19:44.040Z,12.80
2022-10-18T17:22:11.255Z,9.98
2022-10-18T17:24:38.657Z,13.85
2022-10-18T17:27:05.967Z,15.02
2022-10-18T17:29:33.535Z,12.13
2022-10-18T17:32:04.266Z,8.60
2022-10-18T17:34:31.457Z,12.68
2022-10-18T17:36:59.543Z,11.50
2022-10-18T17:39:31.486Z,14.10
2022-10-18T17:41:59.210Z,9.75
2022-10-18T17:44:26.555Z,13.50
2022-10-18T17:46:57.599Z,13.68
2022-10-18T17:49:24.871Z,11.27
2022-10-18T17:51:54.478Z,12.50
2022-10-18T17:54:21.776Z,12.68
2022-10-18T17:56:54.507Z,16.15
2022-10-18T17:59:22.432Z,14.10
2022-10-18T18:01:49.830Z,11.68
2022-10-18T18:04:17.286Z,12.52
2022-10-18T18:06:45.622Z,12.23
2022-10-18T18:09:15.620Z,9.45
2022-10-18T18:11:44.172Z,7.65
2022-10-18T18:14:14.558Z,7.70
2022-10-18T18:16:46.309Z,4.05
2022-10-18T18:19:14.215Z,9.73
2022-10-18T18:21:43.057Z,8.20
2022-10-18T18:24:11.948Z,10.73
2022-10-18T18:26:40.384Z,7.45
2022-10-18T18:29:08.083Z,9.80
2022-10-18T18:31:39.909Z,9.45
2022-10-18T18:34:10.481Z,10.20
2022-10-18T18:36:37.860Z,9.98
2022-10-18T18:39:05.739Z,11.63
2022-10-18T18:41:33.247Z,12.52
2022-10-18T18:44:03.251Z,12.43
2022-10-18T18:46:39.343Z,13.27
2022-10-18T18:49:07.904Z,7.05
2022-10-18T18:51:38.298Z,10.82
2022-10-18T18:54:07.005Z,12.10
2022-10-18T18:56:34.448Z,9.25
2022-10-18T18:59:02.398Z,9.60
2022-10-18T19:01:35.312Z,13.60
2022-10-18T19:04:03.745Z,7.13
2022-10-18T19:06:34.058Z,10.27
2022-10-18T19:09:03.209Z,10.35
2022-10-18T19:11:34.452Z,8.90
2022-10-18T19:14:03.050Z,13.05
2022-10-18T19:16:35.411Z,8.48
2022-10-18T19:19:06.477Z,11.20
2022-10-18T19:21:36.429Z,10.77
2022-10-18T19:24:05.049Z,8.73
2022-10-18T19:26:44.428Z,11.02
2022-10-18T19:29:13.464Z,9.32
2022-10-18T19:31:41.885Z,10.73
2022-10-18T19:34:11.921Z,6.53
2022-10-18T19:36:40.541Z,13.65
2022-10-18T19:39:11.795Z,13.07
2022-10-18T19:41:38.994Z,14.00
2022-10-18T19:44:06.388Z,6.43
2022-10-18T19:46:33.487Z,7.57
2022-10-18T19:49:00.588Z,12.20
2022-10-18T19:51:30.656Z,8.57
2022-10-18T19:53:58.120Z,7.25
2022-10-18T19:56:27.285Z,9.25
2022-10-18T19:58:55.740Z,5.22
2022-10-18T20:01:23.277Z,11.45
2022-10-18T20:03:50.475Z,9.48
2022-10-18T20:06:17.807Z,10.93
2022-10-18T20:08:47.872Z,10.05
2022-10-18T20:11:20.661Z,8.45
2022-10-18T20:13:48.227Z,8.38
2022-10-18T20:16:17.803Z,11.55
2022-10-18T20:18:48.195Z,9.90
2022-10-18T20:21:17.410Z,8.15
2022-10-18T20:23:44.521Z,6.25
2022-10-18T20:26:20.560Z,7.80
2022-10-18T20:28:56.167Z,7.78
2022-10-18T20:31:26.220Z,8.63
2022-10-18T20:33:55.818Z,9.20
2022-10-18T20:36:23.131Z,12.77
2022-10-18T20:38:50.413Z,11.30
2022-10-18T20:41:21.065Z,8.13
2022-10-18T20:44:10.618Z,8.82
2022-10-18T20:46:38.290Z,11.35
2022-10-18T20:49:07.259Z,8.43
2022-10-18T20:51:35.163Z,10.63
2022-10-18T20:56:34.382Z,9.70
2022-10-18T20:59:01.979Z,9.85
2022-10-18T21:01:32.030Z,10.70
2022-10-18T21:04:01.589Z,6.03
2022-10-18T21:06:33.160Z,10.82
2022-10-18T21:09:06.919Z,15.73
2022-10-18T21:11:39.806Z,9.32
2022-10-18T21:14:08.057Z,12.13
2022-10-18T21:16:36.400Z,8.48
2022-10-18T21:19:05.496Z,8.57
2022-10-18T21:21:32.907Z,8.95
2022-10-18T21:24:02.563Z,9.00
2022-10-18T21:26:32.595Z,10.68
2022-10-18T21:29:00.324Z,12.88
2022-10-18T21:31:29.721Z,8.05
2022-10-18T21:34:00.168Z,6.55
2022-10-18T21:36:30.731Z,8.77
2022-10-18T21:38:58.313Z,11.40
2022-10-18T21:41:25.951Z,10.18
2022-10-18T21:43:55.054Z,8.98
2022-10-18T21:46:24.167Z,11.18
2022-10-18T21:48:52.912Z,6.78
2022-10-18T21:51:22.532Z,9.82
2022-10-18T21:53:51.783Z,5.40
2022-10-18T21:56:21.584Z,10.57
2022-10-18T21:58:48.832Z,7.75
2022-10-18T22:01:24.387Z,8.35
2022-10-18T22:03:53.398Z,9.07
2022-10-18T22:06:24.338Z,5.97
2022-10-18T22:08:59.360Z,5.63
2022-10-18T22:11:32.654Z,4.03
2022-10-18T22:13:59.999Z,8.88
2022-10-18T22:16:27.971Z,9.32
2022-10-18T22:19:00.589Z,5.72
2022-10-18T22:21:28.179Z,5.03
2022-10-18T22:23:58.537Z,6.15
2022-10-18T22:26:32.528Z,3.33
2022-10-18T22:29:01.989Z,6.72
2022-10-18T22:31:31.910Z,8.30
2022-10-18T22:34:05.246Z,8.20
2022-10-18T22:36:33.415Z,7.47
2022-10-18T22:39:01.274Z,2.83
2022-10-18T22:41:28.495Z,7.20
2022-10-18T22:43:57.399Z,6.60
2022-10-18T22:46:27.522Z,6.97
2022-10-18T22:48:55.084Z,7.47
2022-10-18T22:51:22.326Z,6.70
2022-10-18T22:53:49.497Z,5.78
2022-10-18T22:56:19.575Z,8.30
2022-10-18T22:58:48.048Z,7.95
2022-10-18T23:01:21.347Z,3.53
2022-10-18T23:04:00.476Z,9.63
2022-10-18T23:06:31.192Z,8.70
2022-10-18T23:09:00.291Z,11.55
2022-10-18T23:11:28.694Z,6.78
2022-10-18T23:13:55.856Z,8.32
2022-10-18T23:16:23.622Z,7.50
2022-10-18T23:18:52.051Z,9.70
2022-10-18T23:21:20.119Z,10.90
2022-10-18T23:23:47.353Z,4.70
2022-10-18T23:26:17.099Z,6.72
2022-10-18T23:28:46.801Z,5.10
2022-10-18T23:31:20.224Z,6.25
2022-10-18T23:33:49.261Z,7.10
2022-10-18T23:36:16.954Z,4.20
2022-10-18T23:38:44.170Z,4.18
2022-10-18T23:41:13.133Z,5.90
2022-10-18T23:43:40.915Z,5.97
2022-10-18T23:46:09.025Z,8.25
2022-10-18T23:48:36.254Z,5.38
2022-10-18T23:51:03.669Z,11.45
2022-10-18T23:53:31.046Z,10.15
2022-10-18T23:56:00.811Z,8.52
2022-10-18T23:58:30.615Z,11.55
